Santa Mae Laura — CUQJ — position and weather

sailwx.info

Track history (hours):
 
Tides and Currents Weather Stations Pressure Air Temp Water Temp Dewpoint Dewpoint Depression Visibility Wind Speed Wind Dir Waves Ship Positions

Santa Mae Laura

Last reported at 2015-Apr-02 19:12 UTC. Time now 2015-May-03 18:55 UTC.
Position N 43°43' W 005°49'.
Warning: this ship's position is 30 days out of date.

Length 24 m.

Type: Fishing. MMSI: 263432000.

Date/timePositionNaut miles runAvg speedWind from/ knotsBaromVisibWave heightAir tempDewpointWater temp
2015-Apr-02 19:12N 43°43' W 005°49'16 5.8
2015-Apr-02 16:26N 43°49' W 005°28'4 4.0
2015-Apr-02 15:31N 43°49' W 005°23'5 4.7
2015-Apr-02 14:33N 43°48' W 005°17'9 4.1
2015-Apr-02 12:27N 43°45' W 005°06'5 3.6
2015-Apr-02 11:10N 43°43' W 004°60'2 0.4
2015-Apr-02 06:14N 43°43' W 004°57'15 3.1
2015-Apr-02 01:21N 43°45' W 005°18'3 2.3
2015-Apr-02 00:11N 43°44' W 005°21'2 0.6
2015-Apr-01 21:29N 43°45' W 005°19'7 0.6
2015-Apr-01 09:21N 43°49' W 005°27'9 2.9
2015-Apr-01 06:18N 43°50' W 005°40'6 3.4
2015-Apr-01 04:30N 43°46' W 005°47'  
2015-Mar-29 20:30N 43°42' W 005°50'7 6.8
2015-Mar-29 19:27N 43°43' W 005°40'7 7.8
2015-Mar-29 18:33N 43°43' W 005°31'7 7.2
2015-Mar-29 17:32N 43°43' W 005°20'7 4.9
2015-Mar-29 16:05N 43°44' W 005°11'5 0.9
2015-Mar-29 10:28N 43°49' W 005°13'7 5.5
2015-Mar-29 09:12N 43°50' W 005°22'14 2.9
2015-Mar-29 04:29N 43°48' W 005°41'9 7.5
2015-Mar-29 03:18N 43°42' W 005°51'5 0.1
2015-Mar-27 18:27N 43°39' W 005°55'  
Track history (hours):
 
Tides and Currents Weather Stations Pressure Air Temp Water Temp Dewpoint Dewpoint Depression Visibility Wind Speed Wind Dir Waves Ship Positions

Santa Mae Laura

Last reported at 2015-Apr-02 19:12 UTC. Time now 2015-May-03 18:55 UTC.
Position N 43°43' W 005°49'.
Warning: this ship's position is 30 days out of date.

Length 24 m.

Type: Fishing. MMSI: 263432000.

Date/timePositionNaut miles runAvg speedWind from/ knotsBaromVisibWave heightAir tempDewpointWater temp
2015-Apr-02 19:12N 43°43' W 005°49'16 5.8
2015-Apr-02 16:26N 43°49' W 005°28'4 4.0
2015-Apr-02 15:31N 43°49' W 005°23'5 4.7
2015-Apr-02 14:33N 43°48' W 005°17'9 4.1
2015-Apr-02 12:27N 43°45' W 005°06'5 3.6
2015-Apr-02 11:10N 43°43' W 004°60'2 0.4
2015-Apr-02 06:14N 43°43' W 004°57'15 3.1
2015-Apr-02 01:21N 43°45' W 005°18'3 2.3
2015-Apr-02 00:11N 43°44' W 005°21'2 0.6
2015-Apr-01 21:29N 43°45' W 005°19'7 0.6
2015-Apr-01 09:21N 43°49' W 005°27'9 2.9
2015-Apr-01 06:18N 43°50' W 005°40'6 3.4
2015-Apr-01 04:30N 43°46' W 005°47'  
2015-Mar-29 20:30N 43°42' W 005°50'7 6.8
2015-Mar-29 19:27N 43°43' W 005°40'7 7.8
2015-Mar-29 18:33N 43°43' W 005°31'7 7.2
2015-Mar-29 17:32N 43°43' W 005°20'7 4.9
2015-Mar-29 16:05N 43°44' W 005°11'5 0.9
2015-Mar-29 10:28N 43°49' W 005°13'7 5.5
2015-Mar-29 09:12N 43°50' W 005°22'14 2.9
2015-Mar-29 04:29N 43°48' W 005°41'9 7.5
2015-Mar-29 03:18N 43°42' W 005°51'5 0.1
2015-Mar-27 18:27N 43°39' W 005°55'  

Dump ship's entire track history